Terminal Aerodrome Forecast
Issued by NWS Cheyenne, WY

Home | Current Version | Previous Version | Text Only | Print | Product List | Glossary On
Versions: 1 2 3 4 5 6 7 8 9 10 11 12 13 14 15 16 17 18 19 20 21 22 23 24 25 26 27 28 29 30 31 32 33
000
FTUS45 KCYS 301732
TAFCYS
TAF
KCYS 301732Z 3018/0118 36015G23KT 3/4SM -SN OVC008
     FM010300 36012G20KT 1/2SM -SHSN FG OVC003
     FM011200 36012KT 3/4SM BR VCSH OVC003=

USA.gov is the U.S. government's official web portal to all federal, state and local government web resources and services.